Time;durP1;ratioP1;P1;durP2;ratioP2;P2;SDS_P1;SDS_P2;PMS_P1;PMS_P2;Temp;Humidity;BMP_temperature;BMP_pressure;BME280_temperature;BME280_humidity;BME280_pressure;Samples;Min_cycle;Max_cycle;Signal;HPM_P1;HPM_P2
2023/05/05 00:02:08;;;;;;;6.13;5.17;;;11.30;60.10;;;;;;6236780;28;20249;-80
2023/05/05 00:05:11;;;;;;;6.00;5.13;;;11.20;60.00;;;;;;6259640;28;20234;-83
2023/05/05 00:08:15;;;;;;;6.80;5.10;;;11.10;60.10;;;;;;6240098;28;20846;-82
2023/05/05 00:11:19;;;;;;;6.23;4.90;;;11.10;60.10;;;;;;6230449;28;20698;-83
2023/05/05 00:14:22;;;;;;;5.13;4.83;;;11.10;60.20;;;;;;6235789;28;20616;-80
2023/05/05 00:17:26;;;;;;;5.53;5.13;;;11.10;60.10;;;;;;6229968;28;20246;-83
2023/05/05 00:20:30;;;;;;;5.47;4.70;;;11.10;60.10;;;;;;6245789;28;20284;-83
2023/05/05 00:23:33;;;;;;;5.37;4.93;;;11.10;60.00;;;;;;6240760;28;20234;-81
2023/05/05 00:26:37;;;;;;;5.47;5.10;;;11.10;60.00;;;;;;6223592;28;20733;-82
2023/05/05 00:29:41;;;;;;;8.43;5.37;;;11.00;60.10;;;;;;6239189;28;20245;-83
2023/05/05 00:32:44;;;;;;;6.10;5.07;;;11.10;60.20;;;;;;6236010;28;20629;-82
2023/05/05 00:35:47;;;;;;;7.10;5.27;;;11.10;60.10;;;;;;6225688;28;20235;-83
2023/05/05 00:38:50;;;;;;;9.20;5.17;;;11.00;60.00;;;;;;6227789;28;20252;-83
2023/05/05 00:41:54;;;;;;;8.10;5.23;;;11.00;60.10;;;;;;6223540;28;20263;-82
2023/05/05 00:44:58;;;;;;;8.00;5.03;;;11.00;60.00;;;;;;6240038;28;20311;-82
2023/05/05 00:48:01;;;;;;;5.10;4.63;;;11.00;60.00;;;;;;6249806;28;20374;-83
2023/05/05 00:51:07;;;;;;;5.00;4.60;;;11.00;59.70;;;;;;6237411;28;20248;-81
2023/05/05 00:54:11;;;;;;;8.47;4.90;;;11.00;59.80;;;;;;6238034;28;20309;-82
2023/05/05 00:57:15;;;;;;;5.20;4.80;;;10.90;59.80;;;;;;6236452;28;20330;-82
2023/05/05 01:00:20;;;;;;;6.07;4.83;;;10.90;59.80;;;;;;6218967;28;20239;-80
2023/05/05 01:03:23;;;;;;;6.37;5.27;;;10.90;60.00;;;;;;6226541;28;20369;-83
2023/05/05 01:06:43;;;;;;;5.43;4.40;;;10.90;60.00;;;;;;6210029;28;20232;-81
2023/05/05 01:09:52;;;;;;;5.07;4.67;;;10.80;60.00;;;;;;6213198;28;20366;-81
2023/05/05 01:13:31;;;;;;;7.60;5.00;;;10.80;60.00;;;;;;6207939;28;20264;-81
2023/05/05 01:16:36;;;;;;;4.80;4.60;;;10.80;60.20;;;;;;6221305;28;20228;-80
2023/05/05 01:20:02;;;;;;;5.53;5.03;;;10.70;60.10;;;;;;6219183;28;20230;-83
2023/05/05 01:23:08;;;;;;;5.77;5.23;;;10.70;60.10;;;;;;6220651;28;20318;-82
2023/05/05 01:26:31;;;;;;;5.67;5.27;;;10.70;60.20;;;;;;6195732;28;20231;-83
2023/05/05 01:29:59;;;;;;;6.43;4.67;;;10.70;60.30;;;;;;6216028;28;20227;-83
2023/05/05 01:33:08;;;;;;;5.03;4.73;;;10.60;60.30;;;;;;6212161;28;20299;-82
2023/05/05 01:36:22;;;;;;;6.73;5.07;;;10.60;60.30;;;;;;6219020;28;20616;-81
2023/05/05 01:39:33;;;;;;;5.23;4.90;;;10.50;60.60;;;;;;6210724;28;20306;-80
2023/05/05 01:42:38;;;;;;;5.10;4.67;;;10.50;60.30;;;;;;6196562;28;20250;-84
2023/05/05 01:45:43;;;;;;;5.63;5.30;;;10.50;60.40;;;;;;6214703;28;20743;-81
2023/05/05 01:48:49;;;;;;;10.23;4.93;;;10.50;60.40;;;;;;6211846;28;20243;-82
2023/05/05 01:51:53;;;;;;;7.17;5.20;;;10.50;60.50;;;;;;6212540;28;20399;-84
2023/05/05 01:54:58;;;;;;;6.50;5.17;;;10.50;60.50;;;;;;6215481;28;20237;-82
2023/05/05 01:58:03;;;;;;;5.70;5.03;;;10.40;60.50;;;;;;6218264;28;20232;-84
2023/05/05 02:01:07;;;;;;;5.60;5.03;;;10.40;60.50;;;;;;6233763;28;20243;-81
2023/05/05 02:04:13;;;;;;;5.93;5.43;;;10.30;60.70;;;;;;6220047;28;20231;-85
2023/05/05 02:07:17;;;;;;;8.20;4.87;;;10.30;60.80;;;;;;6208728;28;20246;-84
2023/05/05 02:10:21;;;;;;;5.43;5.03;;;10.30;60.80;;;;;;6225054;28;20246;-81
2023/05/05 02:13:25;;;;;;;6.43;5.20;;;10.30;60.70;;;;;;6222767;28;20710;-83
2023/05/05 02:16:30;;;;;;;6.00;5.50;;;10.20;60.70;;;;;;6202753;28;20259;-84
2023/05/05 02:19:38;;;;;;;5.87;5.03;;;10.20;60.80;;;;;;6206842;28;20238;-83
2023/05/05 02:22:42;;;;;;;4.73;4.43;;;10.20;61.00;;;;;;6220717;28;20241;-83
2023/05/05 02:25:49;;;;;;;5.70;4.97;;;10.10;61.00;;;;;;6218764;28;20355;-84
2023/05/05 02:29:00;;;;;;;5.40;4.93;;;10.10;61.10;;;;;;6228399;28;20840;-83
2023/05/05 02:32:06;;;;;;;5.47;4.90;;;10.00;61.30;;;;;;6214577;28;20271;-83
2023/05/05 02:35:15;;;;;;;6.90;5.30;;;10.00;61.30;;;;;;6206538;28;20223;-84
2023/05/05 02:38:20;;;;;;;5.23;4.60;;;10.00;61.50;;;;;;6234090;28;20250;-82
2023/05/05 02:41:25;;;;;;;5.17;4.73;;;10.00;61.50;;;;;;6214782;28;20269;-81
2023/05/05 02:44:31;;;;;;;5.70;5.20;;;9.80;61.60;;;;;;6207746;28;20373;-81
2023/05/05 02:47:38;;;;;;;5.83;5.07;;;9.80;61.90;;;;;;6206707;28;20239;-82
2023/05/05 02:50:42;;;;;;;5.53;5.10;;;9.80;61.60;;;;;;6182126;28;20240;-85
2023/05/05 02:53:47;;;;;;;6.63;5.50;;;9.80;61.60;;;;;;6228699;28;20309;-84
2023/05/05 02:56:53;;;;;;;5.37;4.97;;;9.80;61.60;;;;;;6222467;28;20250;-83
2023/05/05 03:00:05;;;;;;;6.40;5.90;;;9.80;61.60;;;;;;6206253;28;20240;-82
2023/05/05 03:03:17;;;;;;;5.53;5.23;;;9.80;61.50;;;;;;6215180;28;20262;-82
2023/05/05 03:06:26;;;;;;;5.40;5.10;;;9.80;61.60;;;;;;6222796;28;20382;-84
2023/05/05 03:09:37;;;;;;;7.50;5.50;;;9.80;61.50;;;;;;6202831;28;20232;-82
2023/05/05 03:12:48;;;;;;;5.63;5.23;;;10.00;61.20;;;;;;6210549;28;20244;-82
2023/05/05 03:15:54;;;;;;;6.30;5.70;;;9.90;61.20;;;;;;6212263;28;20254;-84
2023/05/05 03:18:58;;;;;;;6.03;5.63;;;9.90;61.10;;;;;;6213311;28;20261;-81
2023/05/05 03:22:03;;;;;;;6.20;5.60;;;9.90;61.00;;;;;;6210586;28;20730;-84
2023/05/05 03:25:07;;;;;;;7.57;5.70;;;9.80;61.10;;;;;;6213496;28;20601;-81
2023/05/05 03:28:10;;;;;;;6.23;5.63;;;9.90;61.10;;;;;;6219160;28;20232;-85
2023/05/05 03:31:16;;;;;;;10.33;5.97;;;9.90;61.00;;;;;;6212230;28;20231;-83
2023/05/05 03:34:19;;;;;;;5.67;5.27;;;9.80;61.10;;;;;;6199896;28;20266;-82
2023/05/05 03:37:23;;;;;;;6.23;5.63;;;9.80;61.40;;;;;;6204385;28;20246;-80
2023/05/05 03:40:26;;;;;;;6.47;5.03;;;9.80;61.30;;;;;;6212827;28;20231;-79
2023/05/05 03:43:45;;;;;;;6.03;5.43;;;9.80;61.30;;;;;;6229999;28;20247;-80
2023/05/05 03:46:48;;;;;;;7.10;5.30;;;9.80;61.30;;;;;;6237731;28;20249;-82
2023/05/05 03:49:51;;;;;;;6.33;5.27;;;9.80;61.50;;;;;;6237754;28;21034;-81
2023/05/05 03:52:56;;;;;;;8.57;5.83;;;9.80;61.40;;;;;;6230000;28;20243;-83
2023/05/05 03:55:59;;;;;;;6.07;5.13;;;9.70;61.50;;;;;;6241638;28;20683;-80
2023/05/05 03:59:02;;;;;;;5.77;5.27;;;9.70;61.60;;;;;;6226632;28;20753;-80
2023/05/05 04:02:05;;;;;;;9.67;6.13;;;9.70;61.50;;;;;;6238105;28;20252;-80
2023/05/05 04:05:09;;;;;;;6.93;5.73;;;9.80;61.20;;;;;;6227839;28;20245;-79
2023/05/05 04:08:13;;;;;;;7.17;5.50;;;9.80;61.30;;;;;;6232527;28;20647;-81
2023/05/05 04:11:16;;;;;;;7.03;6.00;;;9.80;61.50;;;;;;6232827;28;20250;-78
2023/05/05 04:14:20;;;;;;;6.23;5.63;;;9.70;61.40;;;;;;6232378;28;20794;-83
2023/05/05 04:17:23;;;;;;;6.13;5.57;;;9.80;61.50;;;;;;6232954;28;20233;-77
2023/05/05 04:20:26;;;;;;;6.23;5.80;;;9.70;61.80;;;;;;6240641;28;20237;-80
2023/05/05 04:23:30;;;;;;;6.93;6.33;;;9.70;61.70;;;;;;6230440;28;20230;-82
2023/05/05 04:26:39;;;;;;;8.37;5.67;;;9.70;61.50;;;;;;6232698;28;20234;-81
2023/05/05 04:29:45;;;;;;;5.77;5.20;;;9.80;61.30;;;;;;6238772;28;20239;-80
2023/05/05 04:32:48;;;;;;;7.97;6.00;;;9.80;61.40;;;;;;6234731;28;20343;-82
2023/05/05 04:35:51;;;;;;;6.70;6.00;;;9.80;61.50;;;;;;6238285;28;20266;-80
2023/05/05 04:38:55;;;;;;;8.50;6.07;;;9.80;61.20;;;;;;6228454;28;20274;-81
2023/05/05 04:41:59;;;;;;;7.27;5.73;;;9.90;61.20;;;;;;6238380;28;20254;-81
2023/05/05 04:45:02;;;;;;;6.93;6.23;;;9.90;61.10;;;;;;6235551;28;20235;-79
2023/05/05 04:48:05;;;;;;;11.60;6.33;;;9.90;61.00;;;;;;6234472;28;20308;-79
2023/05/05 04:51:09;;;;;;;6.77;6.17;;;9.90;60.90;;;;;;6236750;28;20738;-80
2023/05/05 04:54:13;;;;;;;7.70;6.37;;;10.00;61.00;;;;;;6235611;28;20235;-80
2023/05/05 04:57:16;;;;;;;9.13;6.30;;;10.10;60.70;;;;;;6231620;28;20317;-79
2023/05/05 05:00:20;;;;;;;7.60;5.80;;;10.10;60.70;;;;;;6227732;28;20243;-81
2023/05/05 05:03:23;;;;;;;7.03;6.37;;;10.10;60.50;;;;;;6234820;28;20236;-80
2023/05/05 05:06:28;;;;;;;6.47;5.87;;;10.20;60.50;;;;;;6244946;28;20271;-80
2023/05/05 05:09:32;;;;;;;10.80;6.23;;;10.30;60.10;;;;;;6236809;28;20278;-80
2023/05/05 05:12:35;;;;;;;8.87;5.60;;;10.40;59.80;;;;;;6245246;28;21023;-81
2023/05/05 05:15:39;;;;;;;6.30;5.70;;;10.60;59.70;;;;;;6236007;28;20314;-80
2023/05/05 05:18:42;;;;;;;8.03;5.97;;;10.60;59.60;;;;;;6240338;28;20245;-79
2023/05/05 05:21:46;;;;;;;10.80;6.40;;;10.80;59.20;;;;;;6235231;28;20238;-80
2023/05/05 05:24:51;;;;;;;7.63;6.23;;;11.00;58.70;;;;;;6234106;28;20377;-81
2023/05/05 05:27:54;;;;;;;6.23;5.80;;;11.10;58.20;;;;;;6224576;28;20299;-82
2023/05/05 05:31:11;;;;;;;10.40;5.83;;;11.20;58.00;;;;;;6228143;28;20239;-77
2023/05/05 05:34:14;;;;;;;8.60;5.97;;;11.50;57.50;;;;;;6239818;28;20233;-79
2023/05/05 05:37:19;;;;;;;6.80;6.23;;;11.70;57.20;;;;;;6232554;28;20227;-80
2023/05/05 05:40:24;;;;;;;8.43;6.00;;;11.90;56.90;;;;;;6236082;28;22114;-78
2023/05/05 05:43:27;;;;;;;6.77;5.73;;;12.10;56.40;;;;;;6211129;28;20231;-78
2023/05/05 05:46:31;;;;;;;10.10;6.27;;;12.50;56.00;;;;;;6215573;28;20239;-80
2023/05/05 05:49:34;;;;;;;9.97;5.93;;;12.70;55.30;;;;;;6206612;28;20231;-78
2023/05/05 05:52:37;;;;;;;7.67;5.60;;;12.90;54.50;;;;;;6213664;28;20243;-78
2023/05/05 05:55:42;;;;;;;10.57;6.57;;;13.00;54.60;;;;;;6232302;28;20838;-80
2023/05/05 05:58:47;;;;;;;8.23;5.60;;;13.10;54.10;;;;;;6215743;28;20250;-80
2023/05/05 06:01:51;;;;;;;6.67;6.07;;;13.30;53.50;;;;;;6227738;28;20345;-81
2023/05/05 06:04:54;;;;;;;7.30;6.60;;;13.50;53.70;;;;;;6209612;28;20246;-78
2023/05/05 06:07:57;;;;;;;9.27;5.80;;;13.60;53.20;;;;;;6216750;28;20244;-80
2023/05/05 06:11:02;;;;;;;7.50;6.43;;;13.90;52.20;;;;;;6206918;28;20247;-80
2023/05/05 06:14:06;;;;;;;10.37;6.33;;;14.10;51.70;;;;;;6235690;28;20785;-80
2023/05/05 06:17:09;;;;;;;6.63;6.03;;;14.20;51.00;;;;;;6239982;28;20293;-79
2023/05/05 06:20:13;;;;;;;7.43;5.97;;;14.20;51.30;;;;;;6230988;28;20619;-80
2023/05/05 06:23:16;;;;;;;7.07;6.47;;;14.00;51.10;;;;;;6238492;28;20230;-78
2023/05/05 06:26:21;;;;;;;7.43;6.10;;;13.90;51.20;;;;;;6222208;28;20226;-78
2023/05/05 06:29:24;;;;;;;7.97;6.03;;;13.90;51.50;;;;;;6224539;28;20238;-80
2023/05/05 06:32:27;;;;;;;10.67;6.07;;;13.80;51.40;;;;;;6233957;28;20235;-80
2023/05/05 06:35:30;;;;;;;6.30;5.70;;;13.80;51.00;;;;;;6226013;28;20318;-79
2023/05/05 06:38:34;;;;;;;6.40;5.73;;;13.90;50.90;;;;;;6236490;28;20253;-78
2023/05/05 06:41:38;;;;;;;7.03;5.27;;;14.10;51.00;;;;;;6238773;28;20230;-81
2023/05/05 06:44:41;;;;;;;7.20;6.03;;;14.50;50.50;;;;;;6234663;28;20255;-81
2023/05/05 06:47:44;;;;;;;7.60;6.00;;;14.70;49.70;;;;;;6240126;28;20322;-79
2023/05/05 06:50:48;;;;;;;6.63;5.80;;;14.70;50.00;;;;;;6238141;28;20238;-80
2023/05/05 06:53:51;;;;;;;6.50;5.90;;;14.50;49.90;;;;;;6234633;28;20238;-80
2023/05/05 06:56:55;;;;;;;7.13;5.47;;;14.60;51.00;;;;;;6223529;28;20243;-80
2023/05/05 07:00:04;;;;;;;6.27;5.63;;;14.80;49.80;;;;;;6220767;28;20239;-79
2023/05/05 07:03:07;;;;;;;6.27;4.87;;;15.00;49.60;;;;;;6235876;28;20237;-78
2023/05/05 07:06:11;;;;;;;5.93;5.20;;;15.40;49.10;;;;;;6238122;28;20231;-80
2023/05/05 07:09:15;;;;;;;8.23;5.80;;;15.40;49.30;;;;;;6230493;28;20620;-80
2023/05/05 07:12:22;;;;;;;6.07;5.50;;;15.60;48.80;;;;;;6236445;28;20249;-79
2023/05/05 07:15:25;;;;;;;5.43;4.93;;;15.40;48.90;;;;;;6234830;28;20761;-80
2023/05/05 07:18:31;;;;;;;6.27;5.77;;;15.50;48.70;;;;;;6219807;28;20237;-79
2023/05/05 07:21:35;;;;;;;7.07;5.43;;;15.50;48.90;;;;;;6230843;28;20238;-80
2023/05/05 07:24:38;;;;;;;9.50;5.57;;;15.10;49.30;;;;;;6232821;28;20250;-79
2023/05/05 07:27:42;;;;;;;7.80;5.20;;;15.00;49.50;;;;;;6231147;28;20245;-80
2023/05/05 07:30:46;;;;;;;9.57;5.87;;;15.20;49.40;;;;;;6232732;28;20242;-81
2023/05/05 07:33:49;;;;;;;8.60;5.40;;;15.20;49.30;;;;;;6226482;28;20226;-81
2023/05/05 07:36:55;;;;;;;5.70;5.20;;;15.20;49.50;;;;;;6229007;28;20241;-82
2023/05/05 07:39:58;;;;;;;10.50;5.53;;;15.00;49.90;;;;;;6206049;28;20240;-81
2023/05/05 07:43:03;;;;;;;5.43;4.90;;;15.00;49.70;;;;;;6202882;28;20846;-83
2023/05/05 07:46:06;;;;;;;9.20;5.73;;;14.90;50.00;;;;;;6208564;28;20354;-78
2023/05/05 07:49:10;;;;;;;6.10;5.27;;;14.90;50.10;;;;;;6216323;28;20701;-79
2023/05/05 07:52:12;;;;;;;10.17;5.57;;;14.80;50.10;;;;;;6213767;28;20240;-81
2023/05/05 07:55:17;;;;;;;7.10;5.57;;;14.90;50.60;;;;;;6210899;28;20237;-80
2023/05/05 07:58:21;;;;;;;6.73;5.03;;;15.00;50.00;;;;;;6206774;28;20362;-79
2023/05/05 08:01:25;;;;;;;7.80;5.47;;;15.00;50.10;;;;;;6212124;28;20342;-79
2023/05/05 08:04:28;;;;;;;6.83;5.83;;;15.10;49.70;;;;;;6205660;28;20231;-79
2023/05/05 08:07:31;;;;;;;7.33;5.93;;;15.20;49.80;;;;;;6213224;28;20235;-80
2023/05/05 08:10:34;;;;;;;8.60;5.77;;;15.20;50.00;;;;;;6226673;28;20277;-79
2023/05/05 08:13:41;;;;;;;7.17;5.87;;;15.30;49.90;;;;;;6236112;28;20257;-79
2023/05/05 08:16:44;;;;;;;6.30;5.47;;;15.20;49.70;;;;;;6238256;28;20254;-80
2023/05/05 08:19:51;;;;;;;7.00;6.07;;;15.40;49.80;;;;;;6230082;28;20263;-79
2023/05/05 08:22:54;;;;;;;9.03;5.93;;;15.40;49.60;;;;;;6237398;28;20261;-80
2023/05/05 08:25:57;;;;;;;13.70;6.10;;;15.50;49.70;;;;;;6231923;28;20266;-79
2023/05/05 08:29:02;;;;;;;6.37;5.87;;;15.60;49.70;;;;;;6235029;28;20239;-80
2023/05/05 08:32:05;;;;;;;6.23;5.73;;;15.60;49.60;;;;;;6231818;28;20257;-80
2023/05/05 08:35:09;;;;;;;7.03;6.17;;;15.70;49.70;;;;;;6251721;28;20222;-80
2023/05/05 08:38:13;;;;;;;5.77;5.37;;;15.90;50.10;;;;;;6226542;28;20276;-79
2023/05/05 08:41:18;;;;;;;10.53;6.20;;;16.00;49.40;;;;;;6232392;28;20237;-78
2023/05/05 08:44:22;;;;;;;6.30;5.80;;;16.20;49.20;;;;;;6234588;28;20877;-79
2023/05/05 08:47:25;;;;;;;8.37;5.87;;;16.40;49.10;;;;;;6228687;28;20312;-79
2023/05/05 08:50:30;;;;;;;6.50;5.90;;;16.40;48.90;;;;;;6238231;28;20233;-79
2023/05/05 08:53:47;;;;;;;8.07;5.60;;;16.60;49.00;;;;;;6239863;28;20369;-82
2023/05/05 08:56:51;;;;;;;5.97;5.47;;;16.60;49.00;;;;;;6263966;28;20235;-78
2023/05/05 08:59:57;;;;;;;9.20;6.07;;;16.70;48.40;;;;;;6275948;28;20242;-79
2023/05/05 09:03:01;;;;;;;10.00;6.13;;;16.70;48.60;;;;;;6267791;28;20231;-80
2023/05/05 09:06:05;;;;;;;7.53;5.93;;;16.80;48.50;;;;;;6266102;28;20227;-78
2023/05/05 09:09:09;;;;;;;8.17;6.27;;;16.80;48.40;;;;;;6234048;28;20270;-80
2023/05/05 09:12:14;;;;;;;7.17;6.13;;;17.00;48.00;;;;;;6250760;28;20283;-77
2023/05/05 09:15:18;;;;;;;11.47;6.20;;;16.90;48.10;;;;;;6267612;28;20281;-78
2023/05/05 09:18:21;;;;;;;9.67;6.60;;;17.00;48.00;;;;;;6272189;28;20218;-78
2023/05/05 09:21:26;;;;;;;8.27;5.30;;;17.00;47.90;;;;;;6258811;28;20218;-77
2023/05/05 09:24:29;;;;;;;6.13;5.53;;;17.20;48.30;;;;;;6266890;28;20223;-76
2023/05/05 09:27:36;;;;;;;6.17;5.23;;;17.40;49.20;;;;;;6267280;28;20234;-76
2023/05/05 09:30:41;;;;;;;5.87;5.23;;;17.60;48.00;;;;;;6245620;28;20234;-78
2023/05/05 09:33:45;;;;;;;5.73;5.10;;;17.70;47.80;;;;;;6248115;28;20265;-81
2023/05/05 09:36:49;;;;;;;8.90;6.10;;;17.80;47.50;;;;;;6235228;28;20234;-79
2023/05/05 09:39:55;;;;;;;8.73;6.07;;;18.00;47.20;;;;;;6219728;28;20313;-79
2023/05/05 09:43:01;;;;;;;6.50;5.30;;;18.00;47.20;;;;;;6217735;28;20246;-79
2023/05/05 09:46:09;;;;;;;8.27;5.67;;;18.00;47.00;;;;;;6211923;28;20322;-80
2023/05/05 09:49:14;;;;;;;7.70;5.57;;;18.10;47.30;;;;;;6230333;28;20362;-79
2023/05/05 09:52:17;;;;;;;15.97;6.07;;;18.20;46.60;;;;;;6216661;28;20243;-82
2023/05/05 09:55:21;;;;;;;6.70;6.07;;;18.50;46.50;;;;;;6218878;28;20236;-80
2023/05/05 09:58:25;;;;;;;6.53;5.00;;;18.50;46.00;;;;;;6211825;28;20240;-80
2023/05/05 10:01:30;;;;;;;5.70;5.13;;;18.60;46.80;;;;;;6209012;28;20252;-79
2023/05/05 10:04:34;;;;;;;8.27;5.60;;;18.70;46.50;;;;;;6216561;28;20705;-78
2023/05/05 10:07:38;;;;;;;6.83;4.97;;;18.70;47.10;;;;;;6240152;28;20245;-78
2023/05/05 10:10:48;;;;;;;11.53;5.40;;;18.70;47.10;;;;;;6268320;28;20238;-77
2023/05/05 10:13:51;;;;;;;7.50;5.60;;;18.60;46.50;;;;;;6273424;28;20229;-80
2023/05/05 10:16:56;;;;;;;6.33;5.47;;;18.60;46.90;;;;;;6265875;28;20261;-76
2023/05/05 10:20:02;;;;;;;8.87;5.53;;;18.70;46.50;;;;;;6272943;28;20292;-79
2023/05/05 10:23:08;;;;;;;5.93;5.30;;;18.80;46.50;;;;;;6262627;28;20226;-79
2023/05/05 10:26:13;;;;;;;5.90;4.93;;;19.00;46.30;;;;;;6265314;28;20243;-76
2023/05/05 10:29:28;;;;;;;9.50;5.23;;;19.10;46.10;;;;;;6256303;28;21698;-77
2023/05/05 10:32:39;;;;;;;6.83;5.07;;;19.00;46.40;;;;;;6265422;28;20222;-78
2023/05/05 10:36:02;;;;;;;6.00;5.40;;;19.10;46.20;;;;;;6268323;28;20418;-79
2023/05/05 10:39:08;;;;;;;6.63;5.30;;;19.20;46.20;;;;;;6235582;28;20289;-80
2023/05/05 10:42:13;;;;;;;16.60;5.47;;;19.30;46.30;;;;;;6239692;28;20339;-79
2023/05/05 10:45:16;;;;;;;8.83;5.13;;;19.50;45.50;;;;;;6234720;28;20234;-79
2023/05/05 10:48:27;;;;;;;6.23;5.67;;;19.50;46.30;;;;;;6235818;28;20246;-78
2023/05/05 10:51:39;;;;;;;6.57;5.20;;;19.70;45.70;;;;;;6232928;28;20227;-77
2023/05/05 10:54:47;;;;;;;7.27;4.80;;;19.90;45.20;;;;;;6234479;28;20238;-79
2023/05/05 10:57:53;;;;;;;5.77;5.27;;;19.70;45.90;;;;;;6235580;28;20790;-80
2023/05/05 11:00:56;;;;;;;7.93;5.50;;;19.90;45.30;;;;;;6227588;28;20253;-78
2023/05/05 11:04:20;;;;;;;9.77;5.77;;;19.90;45.30;;;;;;6229803;28;20253;-77
2023/05/05 11:07:26;;;;;;;6.33;5.43;;;20.10;44.80;;;;;;6227522;28;20325;-77
2023/05/05 11:10:44;;;;;;;5.77;5.10;;;20.10;45.10;;;;;;6234309;28;20231;-79
2023/05/05 11:14:08;;;;;;;10.07;4.80;;;20.00;45.30;;;;;;6239520;28;20241;-79
2023/05/05 11:17:45;;;;;;;5.80;5.10;;;20.10;45.10;;;;;;6237578;28;20630;-79
2023/05/05 11:21:20;;;;;;;10.70;5.37;;;20.30;44.60;;;;;;6231711;28;20231;-79
2023/05/05 11:24:28;;;;;;;7.23;4.97;;;20.00;45.70;;;;;;6197262;28;20313;-79
2023/05/05 11:28:01;;;;;;;5.83;4.77;;;20.00;44.80;;;;;;6202477;28;20240;-79
2023/05/05 11:31:18;;;;;;;6.17;5.17;;;20.10;45.50;;;;;;6213220;28;20235;-78
2023/05/05 11:34:29;;;;;;;5.40;5.00;;;20.30;44.50;;;;;;6205864;28;20240;-76
2023/05/05 11:37:36;;;;;;;14.17;5.17;;;20.10;44.50;;;;;;6208251;28;20228;-79
2023/05/05 11:40:44;;;;;;;5.57;4.70;;;20.10;44.80;;;;;;6209299;28;20239;-79
2023/05/05 11:43:48;;;;;;;6.17;4.53;;;20.10;44.50;;;;;;6210088;28;20235;-79
2023/05/05 11:47:26;;;;;;;4.97;4.67;;;20.20;44.90;;;;;;6207760;28;20235;-77
2023/05/05 11:50:32;;;;;;;6.37;4.50;;;20.00;44.60;;;;;;6211015;28;21424;-77
2023/05/05 11:53:37;;;;;;;4.83;4.43;;;20.00;44.90;;;;;;6207072;28;20227;-79
2023/05/05 11:56:49;;;;;;;6.67;4.80;;;20.30;44.60;;;;;;6196987;28;20231;-80
2023/05/05 11:59:55;;;;;;;7.07;5.40;;;20.30;44.50;;;;;;6210743;28;20866;-81
2023/05/05 12:02:58;;;;;;;6.33;4.90;;;20.20;44.30;;;;;;6211326;28;20373;-79
2023/05/05 12:06:01;;;;;;;5.17;4.80;;;20.30;44.60;;;;;;6207774;28;20732;-78
2023/05/05 12:09:07;;;;;;;7.13;4.73;;;20.40;44.50;;;;;;6208183;28;20239;-79
2023/05/05 12:12:10;;;;;;;4.93;4.53;;;20.50;44.10;;;;;;6204721;28;20232;-78
2023/05/05 12:15:13;;;;;;;4.83;4.53;;;20.40;45.00;;;;;;6225161;28;20227;-78
2023/05/05 12:18:19;;;;;;;8.30;4.30;;;20.50;44.10;;;;;;6237459;28;20235;-76
2023/05/05 12:21:22;;;;;;;9.37;4.27;;;20.30;44.90;;;;;;6237635;28;20341;-78
2023/05/05 12:24:26;;;;;;;9.03;4.50;;;20.50;44.60;;;;;;6235350;28;20238;-77
2023/05/05 12:27:30;;;;;;;4.77;4.30;;;20.70;44.30;;;;;;6229696;28;20246;-78
2023/05/05 12:30:33;;;;;;;5.37;4.20;;;20.80;43.80;;;;;;6232110;28;20230;-78
2023/05/05 12:33:39;;;;;;;5.20;4.60;;;20.90;43.90;;;;;;6234631;28;20333;-77
2023/05/05 12:36:42;;;;;;;4.00;3.70;;;21.00;44.00;;;;;;6238420;28;20223;-78
2023/05/05 12:39:47;;;;;;;9.67;4.87;;;21.10;44.00;;;;;;6242618;28;20860;-78
2023/05/05 12:42:52;;;;;;;4.73;4.43;;;21.00;44.40;;;;;;6238018;28;20265;-79
2023/05/05 12:46:07;;;;;;;4.70;4.23;;;21.00;43.80;;;;;;6236860;28;20254;-79
2023/05/05 12:49:10;;;;;;;4.63;4.27;;;21.00;43.70;;;;;;6209431;28;20239;-77
2023/05/05 12:52:15;;;;;;;7.47;4.20;;;21.00;43.60;;;;;;6218745;28;20321;-77
2023/05/05 12:55:19;;;;;;;6.00;4.47;;;20.90;44.00;;;;;;6214386;28;20235;-77
2023/05/05 12:58:22;;;;;;;5.47;4.30;;;21.00;43.90;;;;;;6216686;28;20237;-79
2023/05/05 13:01:25;;;;;;;9.00;4.40;;;21.00;43.60;;;;;;6215730;28;20265;-80
2023/05/05 13:04:29;;;;;;;4.90;4.20;;;20.90;43.80;;;;;;6216368;28;20227;-77
2023/05/05 13:07:32;;;;;;;12.50;5.60;;;20.80;44.20;;;;;;6207726;28;20634;-80
2023/05/05 13:10:38;;;;;;;9.03;4.53;;;20.80;44.30;;;;;;6210423;28;20243;-79
2023/05/05 13:13:42;;;;;;;4.90;4.47;;;20.90;44.80;;;;;;6216614;28;20708;-79
2023/05/05 13:16:45;;;;;;;4.87;4.30;;;21.00;44.40;;;;;;6216226;28;20235;-80
2023/05/05 13:19:48;;;;;;;4.37;3.93;;;21.00;44.30;;;;;;6215992;28;20260;-77
2023/05/05 13:22:51;;;;;;;7.83;4.50;;;21.00;44.60;;;;;;6210596;28;20393;-77
2023/05/05 13:25:56;;;;;;;4.37;4.07;;;20.80;44.30;;;;;;6207948;28;20242;-79
2023/05/05 13:28:59;;;;;;;8.67;4.13;;;21.00;44.10;;;;;;6216590;28;20235;-81
2023/05/05 13:32:02;;;;;;;8.07;4.17;;;21.00;43.80;;;;;;6209397;28;20238;-78
2023/05/05 13:35:06;;;;;;;4.40;3.87;;;21.10;44.30;;;;;;6235610;28;20976;-78
2023/05/05 13:38:10;;;;;;;4.40;4.00;;;21.30;43.90;;;;;;6238240;28;20253;-79
2023/05/05 13:41:14;;;;;;;4.83;3.83;;;21.20;44.00;;;;;;6231312;28;20231;-79
2023/05/05 13:44:17;;;;;;;6.13;3.80;;;21.30;43.90;;;;;;6220188;28;20227;-77
2023/05/05 13:47:20;;;;;;;5.17;3.80;;;21.40;43.70;;;;;;6235820;28;20243;-79
2023/05/05 13:50:24;;;;;;;11.63;4.77;;;21.30;43.80;;;;;;6240539;28;20234;-79
2023/05/05 13:53:27;;;;;;;4.23;3.93;;;21.40;43.90;;;;;;6241487;28;20230;-79
2023/05/05 13:56:33;;;;;;;10.03;4.40;;;21.40;43.90;;;;;;6241784;28;20241;-78
2023/05/05 13:59:36;;;;;;;4.70;3.90;;;21.40;43.90;;;;;;6223384;28;20915;-78
2023/05/05 14:02:39;;;;;;;4.67;4.37;;;21.40;43.70;;;;;;6228263;28;20253;-80
2023/05/05 14:05:44;;;;;;;6.60;4.73;;;21.20;44.10;;;;;;6227108;28;20242;-80
2023/05/05 14:08:47;;;;;;;14.57;4.93;;;21.10;44.10;;;;;;6234254;28;20234;-78
2023/05/05 14:11:52;;;;;;;4.73;4.30;;;21.10;44.30;;;;;;6241533;28;20234;-79
2023/05/05 14:14:55;;;;;;;4.30;3.90;;;21.10;44.30;;;;;;6233092;28;20238;-78
2023/05/05 14:18:00;;;;;;;8.57;4.27;;;21.10;44.30;;;;;;6226778;28;25024;-80
2023/05/05 14:21:03;;;;;;;8.23;4.43;;;21.10;44.00;;;;;;6232082;28;20326;-81
2023/05/05 14:24:06;;;;;;;7.87;4.20;;;21.10;43.90;;;;;;6227824;28;20227;-81
2023/05/05 14:27:11;;;;;;;4.83;4.30;;;21.10;44.40;;;;;;6237926;28;20234;-80
2023/05/05 14:30:14;;;;;;;8.07;4.50;;;21.10;44.70;;;;;;6238253;28;20312;-76
2023/05/05 14:33:18;;;;;;;5.47;4.27;;;20.90;44.50;;;;;;6246946;28;20234;-79
2023/05/05 14:36:21;;;;;;;6.23;4.10;;;20.80;44.30;;;;;;6242636;28;20226;-78
2023/05/05 14:39:24;;;;;;;4.90;4.50;;;20.90;44.50;;;;;;6241467;28;20227;-77
2023/05/05 14:42:29;;;;;;;4.80;3.97;;;21.00;44.00;;;;;;6233183;28;20238;-79
2023/05/05 14:45:32;;;;;;;4.40;3.93;;;21.00;43.70;;;;;;6233627;28;20815;-77
2023/05/05 14:48:36;;;;;;;7.03;3.90;;;21.00;44.10;;;;;;6229912;28;20257;-76
2023/05/05 14:51:40;;;;;;;6.43;4.20;;;21.10;43.90;;;;;;6235394;28;20791;-78
2023/05/05 14:54:43;;;;;;;6.23;4.40;;;21.10;43.90;;;;;;6236593;28;20234;-77
2023/05/05 14:57:50;;;;;;;5.23;4.17;;;20.90;43.90;;;;;;6229072;28;20230;-79
2023/05/05 15:00:53;;;;;;;6.63;3.87;;;20.80;44.70;;;;;;6238131;28;20261;-78
2023/05/05 15:03:56;;;;;;;4.60;4.10;;;20.70;44.40;;;;;;6238693;28;20373;-77
2023/05/05 15:07:00;;;;;;;6.50;4.60;;;20.50;45.00;;;;;;6239285;28;20239;-80
2023/05/05 15:10:03;;;;;;;8.30;4.20;;;20.40;44.90;;;;;;6237311;28;20242;-78
2023/05/05 15:13:08;;;;;;;4.43;4.00;;;20.40;44.80;;;;;;6236903;28;20234;-79
2023/05/05 15:16:11;;;;;;;5.17;4.13;;;20.30;44.90;;;;;;6232999;28;20239;-80
2023/05/05 15:19:14;;;;;;;4.60;4.20;;;20.30;44.50;;;;;;6239247;28;20226;-80
2023/05/05 15:22:17;;;;;;;4.57;3.77;;;20.60;44.50;;;;;;6238440;28;20239;-79
2023/05/05 15:25:21;;;;;;;4.17;3.87;;;20.70;44.50;;;;;;6233833;28;20253;-79
2023/05/05 15:28:25;;;;;;;7.13;4.20;;;20.90;44.40;;;;;;6237401;28;20443;-77
2023/05/05 15:31:28;;;;;;;5.73;4.10;;;21.10;44.10;;;;;;6235246;28;20246;-79
2023/05/05 15:34:33;;;;;;;6.67;4.20;;;21.30;44.30;;;;;;6240090;28;20741;-77
2023/05/05 15:37:36;;;;;;;8.83;4.53;;;21.30;43.60;;;;;;6231626;28;20238;-79
2023/05/05 15:40:39;;;;;;;8.17;4.43;;;21.10;43.70;;;;;;6224594;28;20241;-78
2023/05/05 15:43:44;;;;;;;5.47;4.27;;;21.00;43.90;;;;;;6228348;28;20238;-78
2023/05/05 15:46:47;;;;;;;7.10;4.33;;;20.60;44.10;;;;;;6213112;28;20231;-79
2023/05/05 15:49:52;;;;;;;6.67;4.10;;;20.50;44.70;;;;;;6238224;28;20230;-79
2023/05/05 15:52:57;;;;;;;4.80;4.40;;;20.30;44.70;;;;;;6235305;28;20239;-80
2023/05/05 15:56:01;;;;;;;4.53;3.90;;;20.50;44.40;;;;;;6238109;28;20292;-81
2023/05/05 15:59:05;;;;;;;7.33;4.83;;;20.50;44.60;;;;;;6233536;28;20661;-80
2023/05/05 16:02:09;;;;;;;8.80;5.07;;;20.40;44.70;;;;;;6228668;28;20734;-77
2023/05/05 16:05:13;;;;;;;7.30;4.60;;;20.30;44.50;;;;;;6241516;28;20238;-78
2023/05/05 16:08:16;;;;;;;7.43;4.80;;;20.10;44.20;;;;;;6236775;28;20249;-79